createdAt,value
2023-05-05T00:00:22.029Z,70.67
2023-05-05T00:02:50.591Z,70.61
2023-05-05T00:05:19.321Z,70.29
2023-05-05T00:07:47.926Z,69.41
2023-05-05T00:10:16.824Z,68.61
2023-05-05T00:12:45.461Z,68.37
2023-05-05T00:15:14.218Z,67.63
2023-05-05T00:17:43.048Z,67.60
2023-05-05T00:20:11.320Z,67.87
2023-05-05T00:22:39.106Z,67.62
2023-05-05T00:25:07.473Z,67.22
2023-05-05T00:27:36.503Z,67.52
2023-05-05T00:30:06.224Z,67.93
2023-05-05T00:32:35.125Z,69.27
2023-05-05T00:35:03.946Z,70.15
2023-05-05T00:37:33.119Z,69.92
2023-05-05T00:40:01.898Z,70.04
2023-05-05T00:42:45.913Z,69.69
2023-05-05T00:45:15.821Z,69.69
2023-05-05T00:47:57.300Z,71.38
2023-05-05T00:50:29.461Z,71.44
2023-05-05T00:53:01.688Z,71.25
2023-05-05T00:55:30.898Z,71.27
2023-05-05T00:58:01.547Z,72.48
2023-05-05T01:00:30.506Z,71.76
2023-05-05T01:02:59.837Z,71.29
2023-05-05T01:05:38.062Z,70.55
2023-05-05T01:08:14.875Z,70.28
2023-05-05T01:10:52.509Z,69.72
2023-05-05T01:13:42.919Z,69.36
2023-05-05T01:16:19.306Z,69.52
2023-05-05T01:19:37.420Z,70.42
2023-05-05T01:22:09.269Z,70.36
2023-05-05T01:24:56.021Z,70.00
2023-05-05T01:27:38.459Z,69.60
2023-05-05T01:30:44.458Z,69.44
2023-05-05T01:33:19.972Z,69.88
2023-05-05T01:35:55.526Z,70.61
2023-05-05T01:38:36.337Z,70.05
2023-05-05T01:41:30.409Z,70.17
2023-05-05T01:44:03.432Z,69.46
2023-05-05T01:46:34.429Z,70.68
2023-05-05T01:49:05.918Z,72.49
2023-05-05T01:51:36.288Z,72.13
2023-05-05T01:54:08.268Z,72.52
2023-05-05T01:56:40.221Z,72.90
2023-05-05T01:59:10.399Z,73.72
2023-05-05T02:01:44.918Z,74.78
2023-05-05T02:04:15.131Z,74.98
2023-05-05T02:06:46.170Z,75.63
2023-05-05T02:09:16.211Z,75.56
2023-05-05T02:11:44.179Z,74.55
2023-05-05T02:14:12.932Z,73.24
2023-05-05T02:16:42.900Z,72.15
2023-05-05T02:19:14.485Z,73.22
2023-05-05T02:21:43.244Z,74.33
2023-05-05T02:24:12.222Z,75.16
2023-05-05T02:26:44.070Z,74.79
2023-05-05T02:29:19.084Z,76.20
2023-05-05T02:31:55.606Z,75.88
2023-05-05T02:34:26.803Z,75.17
2023-05-05T02:37:00.224Z,75.36
2023-05-05T02:39:37.247Z,76.36
2023-05-05T02:42:07.889Z,75.05
2023-05-05T02:44:42.184Z,75.36
2023-05-05T02:47:10.964Z,74.76
2023-05-05T02:49:39.579Z,74.34
2023-05-05T02:52:07.445Z,73.80
2023-05-05T02:54:36.505Z,74.00
2023-05-05T02:57:05.181Z,74.08
2023-05-05T03:00:06.450Z,74.85
2023-05-05T03:02:44.957Z,74.57
2023-05-05T03:05:19.866Z,76.00
2023-05-05T03:08:09.962Z,75.49
2023-05-05T03:10:56.794Z,74.25
2023-05-05T03:13:28.569Z,73.93
2023-05-05T03:15:59.085Z,73.66
2023-05-05T03:18:29.202Z,72.52
2023-05-05T03:20:59.263Z,71.81
2023-05-05T03:23:27.241Z,71.37
2023-05-05T03:25:55.930Z,71.48
2023-05-05T03:28:24.596Z,70.96
2023-05-05T03:30:54.400Z,71.30
2023-05-05T03:33:23.081Z,74.20
2023-05-05T03:35:50.953Z,74.66
2023-05-05T03:38:19.629Z,75.33
2023-05-05T03:40:48.449Z,74.23
2023-05-05T03:43:17.102Z,73.66
2023-05-05T03:45:45.607Z,74.03
2023-05-05T03:48:14.479Z,74.45
2023-05-05T03:50:45.697Z,74.26
2023-05-05T03:53:14.354Z,74.93
2023-05-05T03:55:42.173Z,75.04
2023-05-05T03:58:11.234Z,75.77
2023-05-05T04:00:39.868Z,75.76
2023-05-05T04:03:08.658Z,76.62
2023-05-05T04:05:37.232Z,76.59
2023-05-05T04:08:05.960Z,76.00
2023-05-05T04:10:34.890Z,75.35
2023-05-05T04:13:04.210Z,75.09
2023-05-05T04:15:32.930Z,74.21
2023-05-05T04:18:01.529Z,73.33
2023-05-05T04:20:29.274Z,72.68
2023-05-05T04:22:57.987Z,71.87
2023-05-05T04:25:27.225Z,71.54
2023-05-05T04:27:56.108Z,71.08
2023-05-05T04:30:23.048Z,70.63
2023-05-05T04:32:51.829Z,70.49
2023-05-05T04:35:20.995Z,70.89
2023-05-05T04:37:49.904Z,71.06
2023-05-05T04:40:18.007Z,71.59
2023-05-05T04:42:46.179Z,71.57
2023-05-05T04:45:13.974Z,72.40
2023-05-05T04:47:42.642Z,72.67
2023-05-05T04:50:11.743Z,72.62
2023-05-05T04:52:40.645Z,74.69
2023-05-05T04:55:10.827Z,77.09
2023-05-05T04:57:39.492Z,76.21
2023-05-05T05:00:10.060Z,74.90
2023-05-05T05:02:38.396Z,74.06
2023-05-05T05:05:07.968Z,72.66
2023-05-05T05:07:35.870Z,72.03
2023-05-05T05:10:03.798Z,71.78
2023-05-05T05:12:32.455Z,72.07
2023-05-05T05:15:00.291Z,71.32
2023-05-05T05:17:30.577Z,70.82
2023-05-05T05:20:01.795Z,71.28
2023-05-05T05:22:31.017Z,71.23
2023-05-05T05:24:59.766Z,71.33
2023-05-05T05:27:28.341Z,70.34
2023-05-05T05:29:56.914Z,70.06
2023-05-05T05:32:25.498Z,69.63
2023-05-05T05:34:54.068Z,69.90
2023-05-05T05:37:21.903Z,69.18
2023-05-05T05:39:53.531Z,69.08
2023-05-05T05:42:22.206Z,68.67
2023-05-05T05:44:50.866Z,69.38
2023-05-05T05:47:19.699Z,68.64
2023-05-05T05:49:47.509Z,69.07
2023-05-05T05:52:15.257Z,68.70
2023-05-05T05:54:43.816Z,68.49
2023-05-05T05:57:11.661Z,68.45
2023-05-05T05:59:40.352Z,67.92
2023-05-05T06:02:09.789Z,67.38
2023-05-05T06:04:38.638Z,67.52
2023-05-05T06:07:07.591Z,68.14
2023-05-05T06:09:35.399Z,70.48
2023-05-05T06:12:03.924Z,71.05
2023-05-05T06:14:32.187Z,71.80
2023-05-05T06:17:00.808Z,70.16
2023-05-05T06:19:29.804Z,69.88
2023-05-05T06:21:58.619Z,69.52
2023-05-05T06:24:27.229Z,68.55
2023-05-05T06:26:55.820Z,67.59
2023-05-05T06:29:24.452Z,67.08
2023-05-05T06:31:53.208Z,66.66
2023-05-05T06:34:21.220Z,66.59
2023-05-05T06:36:49.886Z,66.24
2023-05-05T06:39:17.808Z,65.50
2023-05-05T06:41:46.534Z,64.38
2023-05-05T06:44:15.041Z,64.35
2023-05-05T06:46:43.921Z,64.23
2023-05-05T06:49:14.007Z,62.88
2023-05-05T06:51:42.825Z,63.30
2023-05-05T06:54:11.652Z,63.27
2023-05-05T06:56:40.280Z,63.48
2023-05-05T06:59:08.905Z,62.44
2023-05-05T07:01:37.561Z,62.35
2023-05-05T07:04:06.412Z,62.92
2023-05-05T07:06:35.245Z,62.36
2023-05-05T07:09:04.533Z,61.79
2023-05-05T07:11:33.054Z,60.95
2023-05-05T07:14:00.874Z,60.35
2023-05-05T07:16:28.753Z,61.06
2023-05-05T07:18:56.910Z,60.24
2023-05-05T07:21:24.829Z,59.46
2023-05-05T07:23:53.597Z,60.01
2023-05-05T07:26:22.277Z,59.57
2023-05-05T07:28:52.168Z,60.24
2023-05-05T07:31:20.151Z,60.88
2023-05-05T07:33:48.235Z,62.31
2023-05-05T07:36:18.259Z,61.94
2023-05-05T07:38:46.979Z,61.36
2023-05-05T07:41:14.767Z,60.04
2023-05-05T07:43:44.659Z,61.31
2023-05-05T07:46:14.041Z,61.11
2023-05-05T07:48:42.712Z,60.05
2023-05-05T07:51:11.512Z,60.43
2023-05-05T07:53:39.478Z,60.12
2023-05-05T07:56:09.070Z,59.94
2023-05-05T07:58:37.058Z,59.37
2023-05-05T08:01:06.674Z,58.61
2023-05-05T08:03:34.534Z,58.21
2023-05-05T08:06:09.636Z,59.47
2023-05-05T08:08:38.305Z,58.75
2023-05-05T08:11:06.977Z,57.58
2023-05-05T08:13:35.684Z,56.20
2023-05-05T08:16:04.541Z,56.48
2023-05-05T08:18:33.080Z,57.44
2023-05-05T08:21:01.770Z,57.22
2023-05-05T08:23:30.562Z,56.35
2023-05-05T08:25:59.245Z,57.72
2023-05-05T08:28:27.088Z,56.88
2023-05-05T08:30:55.949Z,56.20
2023-05-05T08:33:23.637Z,56.85
2023-05-05T08:35:52.183Z,56.64
2023-05-05T08:38:21.026Z,56.75
2023-05-05T08:40:52.120Z,55.11
2023-05-05T08:43:22.956Z,54.04
2023-05-05T08:45:53.908Z,52.35
2023-05-05T08:48:27.809Z,53.00
2023-05-05T08:51:00.341Z,52.58
2023-05-05T08:53:45.972Z,52.60
2023-05-05T08:56:15.536Z,52.53
2023-05-05T08:58:46.614Z,53.12
2023-05-05T09:01:18.463Z,52.04
2023-05-05T09:03:47.187Z,51.64
2023-05-05T09:06:16.119Z,51.20
2023-05-05T09:08:44.296Z,51.65
2023-05-05T09:11:12.892Z,51.75
2023-05-05T09:13:42.033Z,51.20
2023-05-05T09:16:10.801Z,50.20
2023-05-05T09:18:39.121Z,51.04
2023-05-05T09:21:24.976Z,50.64
2023-05-05T09:24:09.149Z,51.13
2023-05-05T09:26:38.850Z,51.35
2023-05-05T09:29:06.865Z,51.24
2023-05-05T09:31:36.435Z,49.70
2023-05-05T09:34:16.535Z,48.25
2023-05-05T09:36:50.177Z,49.21
2023-05-05T09:39:20.682Z,50.30
2023-05-05T09:41:49.245Z,50.18
2023-05-05T09:44:34.862Z,50.02
2023-05-05T09:47:07.225Z,49.79
2023-05-05T09:49:40.875Z,49.19
2023-05-05T09:52:14.848Z,49.92
2023-05-05T09:54:44.070Z,49.80
2023-05-05T09:57:33.540Z,48.44
2023-05-05T10:00:04.532Z,48.10
2023-05-05T10:02:35.482Z,48.48
2023-05-05T10:05:16.130Z,47.15
2023-05-05T10:07:45.996Z,49.71
2023-05-05T10:10:17.310Z,49.54
2023-05-05T10:12:47.844Z,48.47
2023-05-05T10:15:16.919Z,48.06
2023-05-05T10:20:22.874Z,48.46
2023-05-05T10:22:53.464Z,48.43
2023-05-05T10:25:35.276Z,48.39
2023-05-05T10:28:08.599Z,47.45
2023-05-05T10:30:43.573Z,46.11
2023-05-05T10:33:49.814Z,46.38
2023-05-05T10:36:20.534Z,45.81
2023-05-05T10:38:49.581Z,45.99
2023-05-05T10:41:20.739Z,46.14
2023-05-05T10:43:49.507Z,45.67
2023-05-05T10:46:17.952Z,44.90
2023-05-05T10:49:05.811Z,44.42
2023-05-05T10:51:43.728Z,44.38
2023-05-05T10:54:21.340Z,45.39
2023-05-05T10:56:50.040Z,45.33
2023-05-05T10:59:36.696Z,44.64
2023-05-05T11:02:24.305Z,44.38
2023-05-05T11:05:15.392Z,45.02
2023-05-05T11:07:44.647Z,46.55
2023-05-05T11:10:14.961Z,46.32
2023-05-05T11:12:52.295Z,45.67
2023-05-05T11:15:30.379Z,45.34
2023-05-05T11:18:00.255Z,44.95
2023-05-05T11:20:37.197Z,45.90
2023-05-05T11:23:05.875Z,44.99
2023-05-05T11:25:37.395Z,44.76
2023-05-05T11:28:18.955Z,44.84
2023-05-05T11:30:56.410Z,45.44
2023-05-05T11:33:37.250Z,45.14
2023-05-05T11:36:08.629Z,44.77
2023-05-05T11:38:55.963Z,43.05
2023-05-05T11:41:33.626Z,42.75
2023-05-05T11:44:16.377Z,43.44
2023-05-05T11:46:50.936Z,43.06
2023-05-05T11:49:49.678Z,41.70
2023-05-05T11:52:17.392Z,41.78
2023-05-05T11:54:48.147Z,39.83
2023-05-05T11:57:18.408Z,41.02
2023-05-05T11:59:53.315Z,40.62
2023-05-05T12:02:22.861Z,40.41
2023-05-05T12:04:51.034Z,40.89
2023-05-05T12:07:20.895Z,40.78
2023-05-05T12:09:50.128Z,42.07
2023-05-05T12:12:18.865Z,40.92
2023-05-05T12:14:53.126Z,40.65
2023-05-05T12:17:22.083Z,39.92
2023-05-05T12:19:54.642Z,39.20
2023-05-05T12:22:26.596Z,37.80
2023-05-05T12:25:03.380Z,38.43
2023-05-05T12:27:31.171Z,37.85
2023-05-05T12:30:13.248Z,36.83
2023-05-05T12:32:40.859Z,36.01
2023-05-05T12:35:10.050Z,36.39
2023-05-05T12:37:39.186Z,35.68
2023-05-05T12:40:44.200Z,36.76
2023-05-05T12:43:35.209Z,36.96
2023-05-05T12:46:04.722Z,37.00
2023-05-05T12:48:33.102Z,37.67
2023-05-05T12:51:31.429Z,37.89
2023-05-05T12:54:11.696Z,38.01
2023-05-05T12:56:45.816Z,38.96
2023-05-05T12:59:22.549Z,39.99
2023-05-05T13:01:54.363Z,39.54
2023-05-05T13:04:27.180Z,38.49
2023-05-05T13:07:12.971Z,37.30
2023-05-05T13:09:41.454Z,37.28
2023-05-05T13:12:12.126Z,36.42
2023-05-05T13:14:41.041Z,37.75
2023-05-05T13:17:09.504Z,37.05
2023-05-05T13:19:42.051Z,36.46
2023-05-05T13:22:10.226Z,35.44
2023-05-05T13:24:49.939Z,34.60
2023-05-05T13:27:20.540Z,34.21
2023-05-05T13:29:48.572Z,34.20
2023-05-05T13:32:16.300Z,33.20
2023-05-05T13:34:44.348Z,35.46
2023-05-05T13:37:12.028Z,35.09
2023-05-05T13:39:39.671Z,35.30
2023-05-05T13:42:07.612Z,36.92
2023-05-05T13:44:35.863Z,37.13
2023-05-05T13:47:03.826Z,37.75
2023-05-05T13:49:32.655Z,37.58
2023-05-05T13:52:00.221Z,36.41
2023-05-05T13:54:28.190Z,35.34
2023-05-05T13:56:56.013Z,35.44
2023-05-05T13:59:23.672Z,35.52
2023-05-05T14:01:51.475Z,37.82
2023-05-05T14:04:19.414Z,38.02
2023-05-05T14:06:47.110Z,37.86
2023-05-05T14:09:14.704Z,38.03
2023-05-05T14:11:42.711Z,37.61
2023-05-05T14:14:10.761Z,37.94
2023-05-05T14:16:38.487Z,37.06
2023-05-05T14:19:06.531Z,36.07
2023-05-05T14:21:34.439Z,36.74
2023-05-05T14:24:05.047Z,36.01
2023-05-05T14:26:32.906Z,35.90
2023-05-05T14:29:00.680Z,34.75
2023-05-05T14:31:28.755Z,33.96
2023-05-05T14:33:59.528Z,33.42
2023-05-05T14:36:27.043Z,34.32
2023-05-05T14:38:54.661Z,36.06
2023-05-05T14:41:22.773Z,35.67
2023-05-05T14:43:50.703Z,36.79
2023-05-05T14:46:18.948Z,35.36
2023-05-05T14:48:47.471Z,34.54
2023-05-05T14:51:16.083Z,34.62
2023-05-05T14:53:44.053Z,34.11
2023-05-05T14:56:11.855Z,33.65
2023-05-05T14:58:39.608Z,33.31
2023-05-05T15:01:07.391Z,32.96
2023-05-05T15:03:35.174Z,31.99
2023-05-05T15:06:02.729Z,33.21
2023-05-05T15:08:30.524Z,35.50
2023-05-05T15:10:58.143Z,36.02
2023-05-05T15:13:26.377Z,36.28
2023-05-05T15:15:53.983Z,36.08
2023-05-05T15:18:21.563Z,35.64
2023-05-05T15:20:49.254Z,34.64
2023-05-05T15:23:17.208Z,34.31
2023-05-05T15:25:45.542Z,34.36
2023-05-05T15:28:14.611Z,34.18
2023-05-05T15:30:42.256Z,33.24
2023-05-05T15:33:11.229Z,33.03
2023-05-05T15:35:40.075Z,32.67
2023-05-05T15:38:07.944Z,32.18
2023-05-05T15:40:35.580Z,32.15
2023-05-05T15:43:03.277Z,32.39
2023-05-05T15:45:30.905Z,32.17
2023-05-05T15:47:58.533Z,31.67
2023-05-05T15:50:26.216Z,33.03
2023-05-05T15:52:57.051Z,33.38
2023-05-05T15:55:24.808Z,33.66
2023-05-05T15:57:53.091Z,33.39
2023-05-05T16:00:21.157Z,35.05
2023-05-05T16:02:49.036Z,35.14
2023-05-05T16:05:16.675Z,34.78
2023-05-05T16:07:44.213Z,33.58
2023-05-05T16:10:14.382Z,33.86
2023-05-05T16:12:41.867Z,33.90
2023-05-05T16:15:10.516Z,33.67
2023-05-05T16:17:40.237Z,33.38
2023-05-05T16:20:10.530Z,33.57
2023-05-05T16:22:38.183Z,33.50
2023-05-05T16:25:06.550Z,32.80
2023-05-05T16:27:34.481Z,32.81
2023-05-05T16:30:02.407Z,34.25
2023-05-05T16:32:30.008Z,33.69
2023-05-05T16:34:57.762Z,33.57
2023-05-05T16:37:25.525Z,33.98
2023-05-05T16:39:53.115Z,33.14
2023-05-05T16:42:21.045Z,34.05
2023-05-05T16:44:49.051Z,36.53
2023-05-05T16:47:16.720Z,38.30
2023-05-05T16:49:44.513Z,40.41
2023-05-05T16:52:12.186Z,39.38
2023-05-05T16:54:39.972Z,39.27
2023-05-05T16:57:07.815Z,38.92
2023-05-05T16:59:36.185Z,38.23
2023-05-05T17:02:04.304Z,37.62
2023-05-05T17:04:33.791Z,37.43
2023-05-05T17:07:01.383Z,36.85
2023-05-05T17:09:28.816Z,36.82
2023-05-05T17:11:56.717Z,36.36
2023-05-05T17:14:27.404Z,36.15
2023-05-05T17:16:55.123Z,36.00
2023-05-05T17:19:22.698Z,36.42
2023-05-05T17:21:50.380Z,36.28
2023-05-05T17:24:17.915Z,36.40
2023-05-05T17:26:45.943Z,35.87
2023-05-05T17:29:14.286Z,35.74
2023-05-05T17:31:43.147Z,35.53
2023-05-05T17:34:10.796Z,35.85
2023-05-05T17:36:38.736Z,35.54
2023-05-05T17:39:06.566Z,35.50
2023-05-05T17:41:34.325Z,35.42
2023-05-05T17:44:01.772Z,35.40
2023-05-05T17:46:29.356Z,35.27
2023-05-05T17:48:57.067Z,35.97
2023-05-05T17:51:24.638Z,36.02
2023-05-05T17:53:52.129Z,35.83
2023-05-05T17:56:19.833Z,36.36
2023-05-05T17:58:48.332Z,36.70
2023-05-05T18:01:26.693Z,36.58
2023-05-05T18:03:54.908Z,37.21
2023-05-05T18:06:22.725Z,36.67
2023-05-05T18:08:50.488Z,37.29
2023-05-05T18:11:21.455Z,37.53
2023-05-05T18:13:49.201Z,37.39
2023-05-05T18:16:16.917Z,37.74
2023-05-05T18:18:44.708Z,37.39
2023-05-05T18:21:12.610Z,37.60
2023-05-05T18:23:40.640Z,37.41
2023-05-05T18:26:08.913Z,37.71
2023-05-05T18:28:37.696Z,37.70
2023-05-05T18:31:06.681Z,37.76
2023-05-05T18:33:35.373Z,38.12
2023-05-05T18:36:04.078Z,38.10
2023-05-05T18:38:32.905Z,38.83
2023-05-05T18:41:00.674Z,38.58
2023-05-05T18:43:29.377Z,39.11
2023-05-05T18:45:57.229Z,39.08
2023-05-05T18:48:24.989Z,39.32
2023-05-05T18:50:52.716Z,39.42
2023-05-05T18:53:21.349Z,39.41
2023-05-05T18:55:50.089Z,40.48
2023-05-05T18:58:17.941Z,40.32
2023-05-05T19:00:45.539Z,40.25
2023-05-05T19:03:13.360Z,41.31
2023-05-05T19:05:42.225Z,42.03
2023-05-05T19:08:10.172Z,41.95
2023-05-05T19:10:38.867Z,42.50
2023-05-05T19:13:06.900Z,42.38
2023-05-05T19:15:35.657Z,42.72
2023-05-05T19:18:05.751Z,42.46
2023-05-05T19:20:34.839Z,42.76
2023-05-05T19:23:04.644Z,42.87
2023-05-05T19:25:33.210Z,42.82
2023-05-05T19:28:01.221Z,43.78
2023-05-05T19:30:29.102Z,43.71
2023-05-05T19:32:57.906Z,44.10
2023-05-05T19:35:27.061Z,43.61
2023-05-05T19:37:56.281Z,43.88
2023-05-05T19:40:24.837Z,43.99
2023-05-05T19:42:53.388Z,44.10
2023-05-05T19:45:22.055Z,44.55
2023-05-05T19:47:50.890Z,44.13
2023-05-05T19:50:19.168Z,44.54
2023-05-05T19:52:47.814Z,44.93
2023-05-05T19:55:16.464Z,45.06
2023-05-05T19:57:44.498Z,45.26
2023-05-05T20:00:13.356Z,45.27
2023-05-05T20:02:41.718Z,45.10
2023-05-05T20:05:11.649Z,45.11
2023-05-05T20:07:40.360Z,45.47
2023-05-05T20:10:09.656Z,45.67
2023-05-05T20:12:38.913Z,46.46
2023-05-05T20:15:08.556Z,46.11
2023-05-05T20:17:37.382Z,46.23
2023-05-05T20:20:06.726Z,46.65
2023-05-05T20:22:35.243Z,46.85
2023-05-05T20:25:04.273Z,46.71
2023-05-05T20:27:32.983Z,46.85
2023-05-05T20:30:04.115Z,46.62
2023-05-05T20:32:32.141Z,46.79
2023-05-05T20:35:00.974Z,47.04
2023-05-05T20:37:29.562Z,46.90
2023-05-05T20:39:58.343Z,47.00
2023-05-05T20:42:27.994Z,47.09
2023-05-05T20:44:56.902Z,47.33
2023-05-05T20:47:24.947Z,47.61
2023-05-05T20:49:52.850Z,47.78
2023-05-05T20:52:21.546Z,48.04
2023-05-05T20:54:50.292Z,48.48
2023-05-05T20:57:18.100Z,49.04
2023-05-05T20:59:46.749Z,48.85
2023-05-05T21:02:15.377Z,49.00
2023-05-05T21:04:44.037Z,49.63
2023-05-05T21:07:12.785Z,49.74
2023-05-05T21:09:40.575Z,49.59
2023-05-05T21:12:08.445Z,49.58
2023-05-05T21:14:45.462Z,49.19
2023-05-05T21:17:13.220Z,49.25
2023-05-05T21:19:41.918Z,49.25
2023-05-05T21:22:09.681Z,49.52
2023-05-05T21:24:39.079Z,49.06
2023-05-05T21:27:06.871Z,49.98
2023-05-05T21:29:38.705Z,49.66
2023-05-05T21:32:08.908Z,49.55
2023-05-05T21:34:36.415Z,49.84
2023-05-05T21:37:05.315Z,49.59
2023-05-05T21:39:35.279Z,49.66
2023-05-05T21:42:04.013Z,50.04
2023-05-05T21:44:33.156Z,50.43
2023-05-05T21:47:01.800Z,50.42
2023-05-05T21:49:34.597Z,50.08
2023-05-05T21:52:03.393Z,50.29
2023-05-05T21:54:31.366Z,50.11
2023-05-05T21:57:02.943Z,50.53
2023-05-05T21:59:30.950Z,51.23
2023-05-05T22:02:05.398Z,51.37
2023-05-05T22:07:51.174Z,51.64
2023-05-05T22:10:19.031Z,51.63
2023-05-05T22:12:48.149Z,51.65
2023-05-05T22:15:19.386Z,51.32
2023-05-05T22:17:47.979Z,50.99
2023-05-05T22:20:16.836Z,51.45
2023-05-05T22:22:46.154Z,51.31
2023-05-05T22:25:13.995Z,51.32
2023-05-05T22:27:43.103Z,51.43
2023-05-05T22:30:11.669Z,52.08
2023-05-05T22:32:43.632Z,51.75
2023-05-05T22:35:11.801Z,52.52
2023-05-05T22:37:41.232Z,52.87
2023-05-05T22:40:10.234Z,52.91
2023-05-05T22:42:38.493Z,53.68
2023-05-05T22:45:08.742Z,54.38
2023-05-05T22:47:37.108Z,53.99
2023-05-05T22:50:05.628Z,54.14
2023-05-05T22:52:34.316Z,54.05
2023-05-05T22:55:03.060Z,53.70
2023-05-05T22:57:31.668Z,54.13
2023-05-05T23:00:00.393Z,53.91
2023-05-05T23:02:29.118Z,54.33
2023-05-05T23:04:57.713Z,54.55
2023-05-05T23:07:25.772Z,54.41
2023-05-05T23:09:54.439Z,54.48
2023-05-05T23:12:23.171Z,54.86
2023-05-05T23:14:52.619Z,54.73
2023-05-05T23:17:24.251Z,54.62
2023-05-05T23:19:52.232Z,54.39
2023-05-05T23:22:24.184Z,55.10
2023-05-05T23:24:53.272Z,55.20
2023-05-05T23:27:21.039Z,55.12
2023-05-05T23:29:49.888Z,55.87
2023-05-05T23:32:18.460Z,55.89
2023-05-05T23:34:46.222Z,56.12
2023-05-05T23:37:16.860Z,56.50
2023-05-05T23:39:45.456Z,56.15
2023-05-05T23:42:14.997Z,56.21
2023-05-05T23:44:42.942Z,56.17
2023-05-05T23:47:11.519Z,56.36
2023-05-05T23:49:39.559Z,56.06
2023-05-05T23:52:08.166Z,56.69
2023-05-05T23:54:35.976Z,56.51
2023-05-05T23:57:04.522Z,56.57
2023-05-05T23:59:32.318Z,56.49
